Time;durP1;ratioP1;P1;durP2;ratioP2;P2;SDS_P1;SDS_P2;PMS_P1;PMS_P2;Temp;Humidity;BMP_temperature;BMP_pressure;BME280_temperature;BME280_humidity;BME280_pressure;Samples;Min_cycle;Max_cycle;Signal;HPM_P1;HPM_P2
2024/02/09 00:01:56;;;;;;;17.20;10.18;;;;;;;8.01;100.00;99881.16;5030386;28;20116;-65
2024/02/09 00:04:21;;;;;;;24.23;11.40;;;;;;;7.74;100.00;99868.13;5029987;28;20029;-67
2024/02/09 00:06:47;;;;;;;21.17;11.85;;;;;;;7.31;100.00;99818.50;5030391;28;20139;-68
2024/02/09 00:09:12;;;;;;;19.85;11.93;;;;;;;7.79;100.00;99897.44;5030119;28;20025;-66
2024/02/09 00:11:39;;;;;;;25.05;12.27;;;;;;;7.71;100.00;99899.72;5030300;28;20449;-65
2024/02/09 00:14:05;;;;;;;29.17;11.63;;;;;;;7.41;100.00;99904.50;5030036;28;20140;-65
2024/02/09 00:16:31;;;;;;;18.58;10.82;;;;;;;7.32;100.00;99905.00;5041318;28;20112;-66
2024/02/09 00:19:15;;;;;;;19.15;10.75;;;;;;;7.42;100.00;99914.81;5067601;28;20048;-66
2024/02/09 00:21:41;;;;;;;15.35;10.63;;;;;;;7.31;100.00;99912.63;5067650;28;20130;-68
2024/02/09 00:24:07;;;;;;;21.33;10.55;;;;;;;7.00;100.00;99924.19;5052036;28;20048;-67
2024/02/09 00:26:32;;;;;;;18.02;10.40;;;;;;;6.49;100.00;99933.13;5042485;28;20044;-71
2024/02/09 00:29:01;;;;;;;14.98;9.38;;;;;;;6.31;100.00;99928.06;5046092;28;20535;-65
2024/02/09 00:31:26;;;;;;;21.65;9.10;;;;;;;6.25;100.00;99920.94;5045233;28;20025;-69
2024/02/09 00:33:52;;;;;;;23.13;9.63;;;;;;;6.10;100.00;99875.00;5042196;28;20475;-68
2024/02/09 00:36:18;;;;;;;19.35;8.38;;;;;;;6.24;100.00;99903.84;5045861;28;20025;-66
2024/02/09 00:38:44;;;;;;;18.10;9.00;;;;;;;6.42;100.00;99915.72;5045622;28;20049;-66
2024/02/09 00:41:11;;;;;;;16.88;8.75;;;;;;;6.54;100.00;99906.00;5047262;28;20607;-68
2024/02/09 00:43:36;;;;;;;28.52;10.05;;;;;;;6.51;100.00;99903.28;5050687;28;20044;-66
2024/02/09 00:46:02;;;;;;;24.23;10.73;;;;;;;5.80;100.00;99800.16;5049698;28;20037;-65
2024/02/09 00:48:27;;;;;;;22.55;10.88;;;;;;;6.46;100.00;99897.09;5048913;28;20033;-64
2024/02/09 00:50:53;;;;;;;18.45;10.45;;;;;;;6.57;100.00;99897.56;5036346;28;20048;-67
2024/02/09 00:53:18;;;;;;;17.65;10.40;;;;;;;6.44;100.00;99899.59;5025358;28;20029;-67
2024/02/09 00:55:44;;;;;;;21.25;12.00;;;;;;;6.21;100.00;99883.19;5030692;28;20037;-68
2024/02/09 00:58:11;;;;;;;19.60;11.13;;;;;;;5.98;100.00;99875.34;5031718;28;20036;-66
2024/02/09 01:00:40;;;;;;;22.30;11.43;;;;;;;6.12;100.00;99887.91;5032098;28;20037;-65
2024/02/09 01:03:07;;;;;;;20.45;10.93;;;;;;;6.14;100.00;99889.72;5032179;28;20492;-70
2024/02/09 01:05:34;;;;;;;17.35;10.57;;;;;;;6.24;100.00;99893.59;5032033;28;20123;-67
2024/02/09 01:08:01;;;;;;;17.25;10.25;;;;;;;6.36;100.00;99890.69;5032240;28;20516;-67
2024/02/09 01:10:26;;;;;;;20.40;11.05;;;;;;;6.13;100.00;99840.94;5031993;28;20037;-68
2024/02/09 02:46:13;;;;;;;19.25;10.27;;;;;;;3.87;100.00;99912.53;5031302;28;20064;-66
2024/02/09 03:05:26;;;;;;;17.67;10.25;;;;;;;4.11;100.00;99843.16;5022728;28;20464;-66
2024/02/09 03:07:53;;;;;;;19.42;10.40;;;;;;;4.58;100.00;99912.88;5021130;28;20464;-66
2024/02/09 03:10:20;;;;;;;17.63;11.13;;;;;;;4.66;100.00;99921.81;5030209;28;20025;-66
2024/02/09 03:12:46;;;;;;;22.35;10.65;;;;;;;4.71;100.00;99924.63;5030217;28;20481;-67
2024/02/09 03:15:12;;;;;;;23.15;10.90;;;;;;;4.73;100.00;99915.34;5030666;28;20029;-66
2024/02/09 03:17:41;;;;;;;17.67;10.30;;;;;;;4.66;100.00;99937.16;5028246;28;20079;-71
2024/02/09 03:20:08;;;;;;;22.40;10.95;;;;;;;4.59;100.00;99916.31;5029983;28;20025;-67
2024/02/09 03:22:35;;;;;;;19.27;10.20;;;;;;;4.84;100.00;99933.78;5029834;28;20065;-66
2024/02/09 03:25:02;;;;;;;19.10;10.60;;;;;;;4.87;100.00;99916.03;5030035;28;20037;-66
2024/02/09 03:27:32;;;;;;;18.17;10.20;;;;;;;4.62;100.00;99925.03;5029793;28;20484;-65
2024/02/09 03:30:01;;;;;;;23.42;11.55;;;;;;;3.85;100.00;99849.41;5029894;28;20048;-67
2024/02/09 03:32:28;;;;;;;23.38;12.38;;;;;;;3.96;100.00;99947.94;5028609;28;20483;-66
2024/02/09 03:34:54;;;;;;;27.80;14.93;;;;;;;3.42;100.00;99952.56;5030164;28;20480;-66
2024/02/09 03:37:26;;;;;;;36.42;19.88;;;;;;;3.31;100.00;99944.31;5029798;28;20028;-67
2024/02/09 03:40:01;;;;;;;33.90;19.00;;;;;;;2.79;100.00;99867.34;5029766;28;20038;-67
2024/02/09 03:42:27;;;;;;;33.90;18.67;;;;;;;3.11;100.00;99921.88;5029712;28;20136;-66
2024/02/09 03:44:56;;;;;;;29.90;16.55;;;;;;;3.08;100.00;99946.41;5029441;28;20432;-66
2024/02/09 03:47:26;;;;;;;24.15;14.93;;;;;;;3.05;100.00;99941.16;5030002;28;20112;-66
2024/02/09 03:49:51;;;;;;;;;;;;;;;3.02;100.00;99947.72;5029920;28;20075;-66
2024/02/09 03:52:20;;;;;;;22.25;12.07;;;;;;;2.47;100.00;99877.41;5029378;28;19956;-67
2024/02/09 03:54:46;;;;;;;23.73;13.07;;;;;;;2.46;100.00;99877.31;5029580;28;20060;-66
2024/02/09 03:57:11;;;;;;;22.23;12.80;;;;;;;3.01;100.00;99941.72;5029735;28;20025;-67
2024/02/09 03:59:42;;;;;;;21.55;11.65;;;;;;;3.02;100.00;99957.94;5029987;28;20627;-67
2024/02/09 04:02:08;;;;;;;22.33;11.77;;;;;;;2.95;100.00;99956.66;5029336;28;20139;-67
2024/02/09 04:04:33;;;;;;;20.88;11.77;;;;;;;2.93;100.00;99932.78;5029438;28;20025;-67
2024/02/09 04:06:59;;;;;;;19.50;11.88;;;;;;;2.79;100.00;99896.28;5029448;28;20467;-69
2024/02/09 04:09:25;;;;;;;17.92;11.25;;;;;;;2.83;100.00;99943.19;5029508;28;20029;-67
2024/02/09 04:11:50;;;;;;;23.02;12.25;;;;;;;2.53;100.00;99976.25;5029411;28;20025;-66
2024/02/09 04:14:19;;;;;;;19.58;12.40;;;;;;;2.47;100.00;99973.31;5028697;28;20481;-68
2024/02/09 04:16:49;;;;;;;20.88;11.52;;;;;;;2.38;100.00;99974.53;5032072;28;20037;-67
2024/02/09 04:19:19;;;;;;;19.50;11.55;;;;;;;2.55;100.00;99967.03;5033400;28;20034;-67
2024/02/09 04:21:48;;;;;;;24.38;13.05;;;;;;;2.75;100.00;99960.59;5033236;28;20037;-67
2024/02/09 04:24:19;;;;;;;21.48;12.02;;;;;;;2.81;100.00;99957.53;5033132;28;20043;-67
2024/02/09 04:26:46;;;;;;;25.98;13.00;;;;;;;2.74;100.00;99966.47;5030229;28;20072;-67
2024/02/09 04:29:15;;;;;;;23.85;12.75;;;;;;;2.52;100.00;99979.59;5033290;28;20029;-66
2024/02/09 04:31:41;;;;;;;27.63;13.80;;;;;;;2.48;100.00;99980.19;5033044;28;20037;-66
2024/02/09 04:34:09;;;;;;;26.10;13.20;;;;;;;2.30;100.00;99974.84;5033120;28;20025;-69
2024/02/09 04:36:40;;;;;;;23.58;11.77;;;;;;;2.34;100.00;99984.44;5033648;28;20076;-67
2024/02/09 04:39:15;;;;;;;22.90;12.98;;;;;;;2.31;100.00;99990.22;5033817;28;20029;-66
2024/02/09 04:41:45;;;;;;;20.52;12.90;;;;;;;2.14;100.00;99967.91;5033098;28;20140;-67
2024/02/09 04:44:11;;;;;;;22.80;13.10;;;;;;;2.27;100.00;99990.81;5033001;28;20519;-66
2024/02/09 04:46:39;;;;;;;21.83;11.88;;;;;;;1.73;100.00;99901.78;5033190;28;20033;-67
2024/02/09 04:49:07;;;;;;;23.92;12.35;;;;;;;2.21;100.00;99991.31;5032835;28;20036;-66
2024/02/09 04:51:37;;;;;;;25.42;12.32;;;;;;;2.34;100.00;99994.63;5033025;28;20033;-66
2024/02/09 04:54:06;;;;;;;22.20;11.98;;;;;;;2.35;100.00;99998.94;5033000;28;20065;-67
2024/02/09 04:56:32;;;;;;;26.77;11.57;;;;;;;2.43;100.00;99996.06;5032856;28;20025;-67
2024/02/09 04:59:04;;;;;;;26.60;11.30;;;;;;;1.88;100.00;99895.88;5032850;28;20029;-67
2024/02/09 05:01:31;;;;;;;23.50;11.50;;;;;;;2.24;100.00;99962.59;5032310;28;20087;-67
2024/02/09 05:03:59;;;;;;;23.08;12.25;;;;;;;2.32;100.00;100003.81;5032264;28;20040;-70
2024/02/09 05:06:28;;;;;;;24.80;12.63;;;;;;;1.83;100.00;99981.25;5032584;28;20124;-67
2024/02/09 05:08:55;;;;;;;30.27;14.68;;;;;;;1.95;100.00;100012.59;5031387;28;20026;-67
2024/02/09 05:11:28;;;;;;;32.75;14.18;;;;;;;2.15;100.00;100018.94;5025557;28;20443;-67
2024/02/09 05:13:54;;;;;;;30.50;16.17;;;;;;;2.39;100.00;100004.31;5024563;28;20442;-67
2024/02/09 05:16:20;;;;;;;30.23;16.20;;;;;;;2.54;100.00;100003.50;5032824;28;20041;-67
2024/02/09 05:18:47;;;;;;;32.50;14.05;;;;;;;2.69;100.00;100001.91;5024781;28;20041;-67
2024/02/09 05:21:14;;;;;;;25.65;12.45;;;;;;;2.82;100.00;99998.41;5032489;28;20048;-67
2024/02/09 05:23:41;;;;;;;27.35;12.85;;;;;;;2.93;100.00;99996.50;5030098;28;20045;-67
2024/02/09 05:26:07;;;;;;;23.10;12.98;;;;;;;2.97;100.00;99995.91;5045867;28;20045;-68
2024/02/09 05:28:40;;;;;;;28.52;14.10;;;;;;;2.84;100.00;99984.09;5032968;28;20141;-66
2024/02/09 05:31:17;;;;;;;20.35;11.38;;;;;;;2.90;100.00;99978.47;5032186;28;20398;-66
2024/02/09 05:33:43;;;;;;;30.98;14.88;;;;;;;2.94;100.00;99975.34;5030021;28;20085;-67
2024/02/09 05:36:23;;;;;;;28.80;13.82;;;;;;;3.08;100.00;99984.66;5032146;28;20044;-67
2024/02/09 05:38:50;;;;;;;37.78;17.67;;;;;;;2.90;100.00;99960.63;5032123;28;20460;-67
2024/02/09 05:41:17;;;;;;;23.20;13.15;;;;;;;3.20;100.00;100004.03;5030497;28;20061;-68
2024/02/09 05:43:52;;;;;;;25.55;13.57;;;;;;;3.16;100.00;100002.09;5031711;28;20037;-67
2024/02/09 05:46:18;;;;;;;22.52;12.73;;;;;;;2.72;100.00;99938.34;5030600;28;20044;-68
2024/02/09 05:48:49;;;;;;;23.63;11.95;;;;;;;2.77;100.00;99983.59;5031912;28;20038;-66
2024/02/09 05:51:17;;;;;;;21.67;12.27;;;;;;;2.47;100.00;100032.81;5031371;28;20033;-66
2024/02/09 05:53:42;;;;;;;31.73;14.10;;;;;;;1.67;100.00;99954.84;5031328;28;20044;-66
2024/02/09 05:56:19;;;;;;;26.27;15.55;;;;;;;1.90;100.00;100041.97;5031559;28;20029;-66
2024/02/09 05:58:51;;;;;;;25.85;14.48;;;;;;;1.37;100.00;100014.75;5028536;28;20030;-66
2024/02/09 06:01:17;;;;;;;26.17;14.70;;;;;;;1.52;100.00;100012.34;5031757;28;20038;-67
2024/02/09 06:03:43;;;;;;;26.37;13.07;;;;;;;1.60;100.00;100040.03;5031771;28;20451;-66
2024/02/09 06:06:11;;;;;;;28.17;13.83;;;;;;;1.57;100.00;100059.31;5031953;28;20087;-66
2024/02/09 06:08:37;;;;;;;23.30;12.17;;;;;;;1.70;100.00;100066.97;5031263;28;20025;-66
2024/02/09 06:11:03;;;;;;;24.27;12.73;;;;;;;1.73;100.00;100041.75;5031118;28;20040;-66
2024/02/09 06:13:30;;;;;;;23.23;13.30;;;;;;;2.00;100.00;100072.31;5028905;28;20045;-66
2024/02/09 06:15:58;;;;;;;22.83;13.10;;;;;;;2.01;100.00;100086.81;5031495;28;20055;-66
2024/02/09 06:18:28;;;;;;;23.73;13.65;;;;;;;1.51;100.00;99992.75;5031254;28;20116;-67
2024/02/09 06:20:55;;;;;;;23.08;14.30;;;;;;;1.97;100.00;100081.41;5024222;28;20042;-65
2024/02/09 06:23:24;;;;;;;24.08;15.68;;;;;;;1.94;100.00;100079.53;5030390;28;20103;-67
2024/02/09 06:25:50;;;;;;;24.70;13.32;;;;;;;2.09;100.00;100077.09;5028753;28;20069;-67
2024/02/09 06:28:16;;;;;;;23.85;12.32;;;;;;;2.21;100.00;100060.06;5031072;28;20033;-68
2024/02/09 06:30:43;;;;;;;23.42;12.40;;;;;;;1.81;100.00;99991.34;5029822;28;20056;-66
2024/02/09 06:33:08;;;;;;;21.13;12.68;;;;;;;2.49;100.00;100092.38;5030221;28;20180;-67
2024/02/09 06:35:34;;;;;;;22.10;13.02;;;;;;;2.52;100.00;100082.41;5030462;28;20167;-67
2024/02/09 06:38:01;;;;;;;21.08;11.52;;;;;;;2.49;100.00;100050.75;5031000;28;20041;-66
2024/02/09 06:40:26;;;;;;;26.33;12.80;;;;;;;2.92;100.00;100073.78;5003980;28;20034;-68
2024/02/09 06:42:52;;;;;;;24.50;13.43;;;;;;;3.30;100.00;100072.69;5029789;28;20068;-67
2024/02/09 06:45:17;;;;;;;18.75;11.45;;;;;;;3.20;100.00;99998.91;5031209;28;20374;-71
2024/02/09 06:47:44;;;;;;;21.88;12.82;;;;;;;4.01;100.00;100070.78;5030380;28;20447;-66
2024/02/09 06:50:10;;;;;;;26.52;13.63;;;;;;;3.93;100.00;100013.28;5032878;28;20029;-67
2024/02/09 06:52:37;;;;;;;23.95;13.43;;;;;;;4.60;100.00;100068.88;5033089;28;20037;-67
2024/02/09 06:55:07;;;;;;;27.00;14.23;;;;;;;4.84;100.00;100069.34;5030192;28;20041;-68
2024/02/09 06:57:33;;;;;;;22.70;13.85;;;;;;;5.07;100.00;100067.13;5009967;28;20037;-67
2024/02/09 06:59:59;;;;;;;45.22;21.77;;;;;;;5.31;100.00;100070.97;5030219;28;20025;-67
2024/02/09 07:02:24;;;;;;;31.30;16.80;;;;;;;5.54;100.00;100075.50;5030695;28;20087;-68
2024/02/09 07:05:00;;;;;;;30.75;16.75;;;;;;;5.69;100.00;100075.41;5028093;28;20029;-66
2024/02/09 07:07:28;;;;;;;31.42;15.35;;;;;;;5.91;100.00;100073.09;5043109;28;20483;-67
2024/02/09 07:09:54;;;;;;;27.63;15.43;;;;;;;5.78;100.00;100046.00;5029316;28;20124;-67
2024/02/09 07:12:20;;;;;;;24.65;14.90;;;;;;;5.92;100.00;100050.91;5029423;28;20485;-66
2024/02/09 07:14:45;;;;;;;25.48;14.23;;;;;;;6.19;100.00;100065.91;5029771;28;20064;-66
2024/02/09 07:17:10;;;;;;;23.88;13.90;;;;;;;5.41;100.00;99921.28;5029646;28;20051;-66
2024/02/09 07:19:36;;;;;;;22.35;12.40;;;;;;;6.08;100.00;99989.38;5030077;28;20531;-67
2024/02/09 07:22:01;;;;;;;24.63;14.05;;;;;;;6.59;100.00;100067.78;5030221;28;20034;-70
2024/02/09 07:24:27;;;;;;;24.15;12.95;;;;;;;6.58;100.00;100059.22;5029631;28;20029;-68
2024/02/09 07:26:53;;;;;;;19.85;11.68;;;;;;;6.69;100.00;100066.50;5029916;28;20030;-67
2024/02/09 07:29:22;;;;;;;19.05;12.38;;;;;;;6.73;100.00;100047.88;5029010;28;20030;-67
2024/02/09 07:31:49;;;;;;;23.90;12.57;;;;;;;6.95;100.00;100065.13;5029408;28;20547;-66
2024/02/09 07:34:15;;;;;;;19.30;12.10;;;;;;;6.78;100.00;100010.50;5032373;28;20025;-68
2024/02/09 07:36:41;;;;;;;20.20;12.63;;;;;;;7.17;100.00;100041.28;5029139;28;20415;-68
2024/02/09 07:39:09;;;;;;;21.58;12.27;;;;;;;6.95;100.00;99985.56;5029740;28;20048;-68
2024/02/09 07:41:35;;;;;;;22.35;12.10;;;;;;;7.45;100.00;100024.50;5029027;28;20120;-67
2024/02/09 07:44:03;;;;;;;22.63;11.25;;;;;;;7.53;100.00;100015.44;5026939;28;20037;-67
2024/02/09 07:46:30;;;;;;;20.20;11.18;;;;;;;7.48;100.00;100008.34;5029893;28;20087;-67
2024/02/09 07:48:56;;;;;;;24.83;11.35;;;;;;;7.52;100.00;100017.94;5029259;28;20120;-67
2024/02/09 07:51:22;;;;;;;22.85;11.75;;;;;;;7.71;100.00;100011.88;5028467;28;20120;-67
2024/02/09 07:53:52;;;;;;;25.85;12.98;;;;;;;7.81;100.00;100016.56;5029086;28;20069;-72
2024/02/09 07:56:21;;;;;;;21.92;13.00;;;;;;;7.91;100.00;100004.97;5027466;28;20405;-71
2024/02/09 07:58:47;;;;;;;21.23;8.73;;;;;;;7.96;100.00;99989.72;5029427;28;20045;-68
2024/02/09 08:01:12;;;;;;;18.73;11.40;;;;;;;8.13;100.00;100009.28;5024952;28;20033;-66
2024/02/09 08:03:41;;;;;;;23.08;12.05;;;;;;;8.24;100.00;100008.00;5023408;28;20029;-68
2024/02/09 08:06:06;;;;;;;22.98;12.98;;;;;;;8.45;100.00;100007.06;5018375;28;20030;-68
2024/02/09 08:08:32;;;;;;;19.42;12.88;;;;;;;8.59;100.00;99994.75;5029542;28;20036;-68
2024/02/09 08:10:57;;;;;;;21.27;12.52;;;;;;;8.66;100.00;99993.28;5028494;28;20034;-67
2024/02/09 08:13:23;;;;;;;21.40;11.90;;;;;;;8.64;100.00;99998.38;5029209;28;20040;-68
2024/02/09 08:15:49;;;;;;;22.13;12.90;;;;;;;8.71;100.00;99997.78;5028885;28;20057;-67
2024/02/09 08:18:16;;;;;;;18.35;11.68;;;;;;;8.66;100.00;99981.31;5029281;28;20036;-69
2024/02/09 08:20:42;;;;;;;20.13;12.00;;;;;;;8.84;100.00;99993.09;5028841;28;20029;-67
2024/02/09 08:23:07;;;;;;;18.65;11.02;;;;;;;8.94;100.00;99991.72;5029036;28;20029;-71
2024/02/09 08:25:32;;;;;;;16.55;10.85;;;;;;;9.13;99.74;99993.25;5029449;28;20080;-67
2024/02/09 08:28:00;;;;;;;18.60;11.65;;;;;;;9.23;98.87;99993.63;5026497;28;20060;-66
2024/02/09 08:30:26;;;;;;;25.25;12.80;;;;;;;9.39;98.15;99989.00;5028919;28;20465;-66
2024/02/09 08:32:53;;;;;;;22.25;13.20;;;;;;;9.11;96.90;99926.25;5029084;28;20033;-66
2024/02/09 08:35:19;;;;;;;21.20;11.48;;;;;;;9.33;99.69;100004.22;5028901;28;20029;-68
2024/02/09 08:37:45;;;;;;;22.15;13.25;;;;;;;9.19;100.00;99976.28;5028612;28;20041;-67
2024/02/09 08:40:10;;;;;;;21.75;12.35;;;;;;;9.33;100.00;99975.91;5029302;28;20037;-67
2024/02/09 08:42:36;;;;;;;24.67;13.02;;;;;;;9.20;100.00;99933.41;5028686;28;20068;-67
2024/02/09 08:45:01;;;;;;;21.90;11.70;;;;;;;9.24;100.00;99919.78;5028848;28;20091;-67
2024/02/09 08:47:28;;;;;;;21.58;12.23;;;;;;;9.88;98.12;99997.44;5028922;28;20401;-66
2024/02/09 08:49:54;;;;;;;27.20;13.63;;;;;;;10.02;97.83;99995.34;5028718;28;20037;-68
2024/02/09 08:52:20;;;;;;;20.25;13.07;;;;;;;9.71;96.31;99917.03;5028845;28;20030;-68
2024/02/09 08:54:45;;;;;;;23.08;13.00;;;;;;;10.23;95.66;99983.91;5028845;28;20076;-68
2024/02/09 08:57:14;;;;;;;23.27;12.45;;;;;;;10.38;94.88;99996.44;5028668;28;20068;-67
2024/02/09 08:59:40;;;;;;;24.05;12.38;;;;;;;10.16;94.56;99945.03;5028955;28;20033;-67
2024/02/09 09:02:12;;;;;;;23.95;13.00;;;;;;;10.60;94.09;99995.38;5029850;28;20108;-67
2024/02/09 09:04:38;;;;;;;19.50;12.70;;;;;;;10.30;93.66;99935.13;5030471;28;20041;-66
2024/02/09 09:07:03;;;;;;;20.40;12.75;;;;;;;10.49;94.13;99939.16;5031722;28;20554;-66
2024/02/09 09:09:30;;;;;;;23.45;12.75;;;;;;;10.91;93.43;99996.25;5032066;28;20057;-67
2024/02/09 09:11:56;;;;;;;17.80;11.55;;;;;;;11.04;93.58;99992.28;5031575;28;20405;-66
2024/02/09 09:14:21;;;;;;;22.23;11.70;;;;;;;11.07;92.56;99988.09;5031887;28;20032;-66
2024/02/09 09:16:47;;;;;;;15.77;10.50;;;;;;;11.12;92.05;99978.75;5032532;28;20021;-67
2024/02/09 09:19:14;;;;;;;18.17;10.25;;;;;;;11.12;93.30;99960.66;5032010;28;20018;-71
2024/02/09 09:21:41;;;;;;;22.52;12.00;;;;;;;11.24;92.93;99980.78;5031818;28;20036;-69
2024/02/09 09:24:08;;;;;;;22.05;11.55;;;;;;;11.25;92.18;99955.81;5031926;28;20036;-69
2024/02/09 09:26:33;;;;;;;19.90;11.52;;;;;;;11.42;91.33;99980.38;5031797;28;20052;-66
2024/02/09 09:29:00;;;;;;;18.00;11.10;;;;;;;11.55;91.90;99979.00;5032559;28;20099;-66
2024/02/09 09:31:26;;;;;;;20.00;10.35;;;;;;;11.70;90.69;99956.94;5031996;28;20033;-66
2024/02/09 09:33:53;;;;;;;15.25;9.88;;;;;;;11.13;88.66;99835.81;5031417;28;20467;-67
2024/02/09 09:36:20;;;;;;;19.77;11.02;;;;;;;11.77;88.65;99964.84;5031233;28;20029;-67
2024/02/09 09:38:45;;;;;;;18.85;9.27;;;;;;;11.86;88.12;99951.28;5031561;28;20099;-66
2024/02/09 09:41:11;;;;;;;20.45;10.77;;;;;;;11.79;88.32;99936.47;5031280;28;20484;-66
2024/02/09 09:43:37;;;;;;;19.92;10.30;;;;;;;12.09;87.91;99957.00;5031785;28;20033;-67
2024/02/09 09:46:08;;;;;;;16.00;9.48;;;;;;;12.25;85.05;99944.41;5031397;28;20115;-67
2024/02/09 09:48:35;;;;;;;21.58;10.57;;;;;;;12.26;84.93;99925.44;5031517;28;20075;-66
2024/02/09 09:51:03;;;;;;;17.10;10.23;;;;;;;12.05;84.29;99864.66;5031313;28;20437;-65
2024/02/09 09:53:38;;;;;;;19.30;9.18;;;;;;;12.67;84.21;99922.81;5031275;28;20030;-66
2024/02/09 09:56:07;;;;;;;21.05;9.10;;;;;;;12.86;83.30;99907.63;5031266;28;20064;-66
2024/02/09 09:58:37;;;;;;;28.27;9.27;;;;;;;12.98;81.15;99909.59;5031357;28;20158;-65
2024/02/09 10:01:05;;;;;;;15.20;7.93;;;;;;;13.16;81.05;99912.53;5029403;28;20103;-67
2024/02/09 10:03:32;;;;;;;15.40;8.73;;;;;;;13.35;80.80;99905.91;5031599;28;20489;-67
2024/02/09 10:05:58;;;;;;;14.05;7.80;;;;;;;13.37;80.80;99865.38;5029728;28;20404;-67
2024/02/09 10:08:24;;;;;;;18.02;7.85;;;;;;;13.68;79.47;99891.78;5031120;28;20243;-69
2024/02/09 10:10:50;;;;;;;13.93;6.88;;;;;;;13.74;78.61;99860.75;5030864;28;20520;-67
2024/02/09 10:13:16;;;;;;;16.75;8.45;;;;;;;13.80;76.64;99870.31;5030854;28;20503;-69
2024/02/09 10:15:42;;;;;;;17.35;8.45;;;;;;;13.99;76.33;99874.03;5044921;28;20045;-68
2024/02/09 10:18:10;;;;;;;16.42;7.15;;;;;;;14.24;76.83;99869.16;5030841;28;20029;-71
2024/02/09 10:20:40;;;;;;;16.40;7.93;;;;;;;14.32;75.77;99864.94;5030520;28;20041;-69
2024/02/09 10:23:05;;;;;;;11.02;6.32;;;;;;;13.98;74.89;99786.66;5031268;28;20029;-72
2024/02/09 10:25:35;;;;;;;11.23;6.18;;;;;;;14.35;74.88;99869.28;5030992;28;20041;-68
2024/02/09 10:28:01;;;;;;;20.17;6.35;;;;;;;13.69;75.36;99750.84;5030513;28;20455;-69
2024/02/09 10:30:29;;;;;;;15.57;6.78;;;;;;;14.53;75.10;99866.91;5030326;28;20503;-69
2024/02/09 10:32:55;;;;;;;14.15;7.15;;;;;;;14.65;73.98;99861.00;5028040;28;20191;-69
2024/02/09 10:35:20;;;;;;;12.77;6.97;;;;;;;14.84;73.85;99850.78;5030784;28;20114;-68
2024/02/09 10:37:47;;;;;;;10.98;6.57;;;;;;;14.90;73.18;99832.66;5031346;28;20552;-68
2024/02/09 10:40:13;;;;;;;13.30;5.93;;;;;;;15.04;72.40;99849.25;5030594;28;20167;-69
2024/02/09 10:42:40;;;;;;;12.07;5.47;;;;;;;15.18;71.58;99848.50;5030152;28;20521;-67
2024/02/09 10:45:10;;;;;;;12.23;5.95;;;;;;;15.22;70.73;99850.25;5029881;28;20045;-72
2024/02/09 10:47:39;;;;;;;11.15;5.63;;;;;;;15.22;71.36;99841.59;5030150;28;20021;-68
2024/02/09 10:50:05;;;;;;;;;;;;;;;15.14;71.65;99829.41;5030515;28;20602;-68
2024/02/09 10:52:35;;;;;;;10.85;5.32;;;;;;;15.27;71.37;99819.09;5030318;28;19916;-65
2024/02/09 10:55:05;;;;;;;11.20;6.05;;;;;;;15.20;72.05;99819.06;5030755;28;20060;-71
2024/02/09 10:57:33;;;;;;;8.25;5.30;;;;;;;15.28;71.63;99805.25;5030130;28;20413;-68
2024/02/09 11:00:00;;;;;;;11.68;5.90;;;;;;;15.40;71.16;99794.03;5030067;28;20083;-68
2024/02/09 11:02:29;;;;;;;9.35;5.30;;;;;;;15.18;71.27;99752.31;5029423;28;20025;-66
2024/02/09 11:04:59;;;;;;;11.05;5.97;;;;;;;14.97;73.06;99734.81;5029968;28;20099;-67
2024/02/09 11:07:25;;;;;;;;;;;;;;;15.43;72.93;99787.13;5030702;28;20034;-67
2024/02/09 11:09:51;;;;;;;11.02;5.57;;;;;;;15.50;73.97;99788.03;5029738;28;19995;-67
2024/02/09 11:12:19;;;;;;;10.63;5.10;;;;;;;15.53;72.51;99783.72;5029839;28;20152;-68
2024/02/09 11:14:45;;;;;;;9.68;5.15;;;;;;;15.59;71.81;99776.78;5029809;28;20528;-67
2024/02/09 11:17:15;;;;;;;9.38;4.95;;;;;;;14.94;72.04;99643.81;5029341;28;20497;-68
2024/02/09 11:19:41;;;;;;;;;;;;;;;15.77;71.99;99776.03;5029826;28;20072;-67
2024/02/09 11:22:11;;;;;;;9.07;5.00;;;;;;;15.76;71.61;99769.06;5030325;28;19959;-65
2024/02/09 11:24:36;;;;;;;;;;;;;;;15.71;72.76;99755.19;5029387;28;20111;-67
2024/02/09 11:27:04;;;;;;;8.75;4.40;;;;;;;15.85;71.90;99757.00;5029396;28;19959;-68
2024/02/09 11:29:32;;;;;;;11.48;4.38;;;;;;;16.00;71.78;99740.56;5027408;28;20091;-68
2024/02/09 11:32:04;;;;;;;10.80;4.70;;;;;;;16.27;73.64;99731.06;5029273;28;20174;-71
2024/02/09 11:34:33;;;;;;;7.63;3.88;;;;;;;16.35;72.11;99728.50;5029386;28;20445;-68
2024/02/09 11:37:00;;;;;;;10.20;4.60;;;;;;;16.60;71.40;99738.97;5025204;28;20084;-66
2024/02/09 11:39:31;;;;;;;9.18;4.35;;;;;;;16.69;71.13;99738.09;5029398;28;20065;-65
2024/02/09 11:42:04;;;;;;;7.28;3.92;;;;;;;16.71;71.55;99732.00;5026621;28;20049;-67
2024/02/09 11:44:32;;;;;;;10.98;4.07;;;;;;;16.62;72.49;99725.06;5042184;28;20073;-67
2024/02/09 11:46:58;;;;;;;9.50;3.90;;;;;;;16.52;72.74;99691.16;5029701;28;20492;-66
2024/02/09 11:49:26;;;;;;;8.07;3.72;;;;;;;16.47;72.12;99696.38;5029830;28;20026;-67
2024/02/09 11:52:00;;;;;;;9.30;4.45;;;;;;;16.54;72.73;99708.53;5028979;28;20112;-66
2024/02/09 11:54:25;;;;;;;8.30;4.60;;;;;;;16.72;73.54;99698.97;5024932;28;20122;-69
2024/02/09 11:56:56;;;;;;;9.13;3.70;;;;;;;16.88;71.08;99698.09;5029450;28;20044;-65
2024/02/09 11:59:22;;;;;;;8.18;3.90;;;;;;;16.86;70.15;99681.59;5027577;28;20156;-67
2024/02/09 12:01:53;;;;;;;7.85;3.90;;;;;;;16.98;70.29;99688.53;5028347;28;20034;-65
2024/02/09 12:04:20;;;;;;;8.95;3.92;;;;;;;17.02;70.01;99692.03;5028999;28;20033;-67
2024/02/09 12:06:46;;;;;;;8.90;3.85;;;;;;;16.66;69.51;99630.34;5029909;28;20045;-66
2024/02/09 12:09:14;;;;;;;9.70;4.15;;;;;;;16.95;69.50;99665.97;5029104;28;20033;-65
2024/02/09 12:11:39;;;;;;;9.13;3.70;;;;;;;16.93;69.08;99667.69;5026883;28;20029;-65
2024/02/09 12:14:05;;;;;;;9.15;3.63;;;;;;;16.79;69.60;99645.97;5026531;28;20022;-66
2024/02/09 12:16:31;;;;;;;7.97;3.58;;;;;;;16.76;70.59;99657.28;5029339;28;20029;-67
2024/02/09 12:18:59;;;;;;;7.88;3.97;;;;;;;16.43;71.55;99593.03;5029061;28;20426;-67
2024/02/09 12:21:26;;;;;;;6.13;3.40;;;;;;;16.58;70.56;99579.97;5029167;28;20029;-67
2024/02/09 12:23:53;;;;;;;7.00;3.85;;;;;;;17.15;69.03;99649.41;5028840;28;20108;-72
2024/02/09 12:26:21;;;;;;;8.55;4.15;;;;;;;17.32;69.09;99651.97;5029250;28;20033;-66
2024/02/09 12:28:48;;;;;;;7.45;3.13;;;;;;;17.59;65.06;99650.09;5029188;28;20032;-65
2024/02/09 12:31:19;;;;;;;9.73;4.05;;;;;;;17.38;63.76;99588.44;5015664;28;20033;-66
2024/02/09 12:33:49;;;;;;;8.13;3.30;;;;;;;17.85;60.16;99626.44;5031110;28;20076;-65
2024/02/09 12:36:20;;;;;;;13.45;3.90;;;;;;;17.98;58.13;99618.56;5029509;28;20416;-65
2024/02/09 12:38:50;;;;;;;15.82;3.45;;;;;;;17.99;57.06;99609.84;5032818;28;20029;-67
2024/02/09 12:41:16;;;;;;;6.65;3.03;;;;;;;18.09;56.47;99617.63;5033164;28;20050;-66
2024/02/09 12:43:44;;;;;;;8.38;3.25;;;;;;;18.08;58.24;99610.66;5032605;28;20064;-65
2024/02/09 12:46:10;;;;;;;7.72;3.45;;;;;;;17.98;59.53;99605.50;5033267;28;20496;-64
2024/02/09 12:48:40;;;;;;;7.05;3.30;;;;;;;17.68;57.39;99569.09;5032742;28;20064;-65
2024/02/09 12:51:05;;;;;;;;;;;;;;;17.90;57.19;99624.66;5047554;28;20044;-69
2024/02/09 12:53:33;;;;;;;11.00;3.95;;;;;;;17.83;57.94;99612.53;5032413;28;20288;-67
2024/02/09 12:55:59;;;;;;;10.05;3.60;;;;;;;17.81;56.74;99609.06;5033021;28;20033;-65
2024/02/09 12:58:24;;;;;;;12.02;3.10;;;;;;;17.65;55.74;99597.00;5032901;28;20034;-66
2024/02/09 13:00:52;;;;;;;7.72;2.85;;;;;;;17.63;55.86;99586.53;5032876;28;20378;-67
2024/02/09 13:03:19;;;;;;;8.85;3.13;;;;;;;17.80;56.15;99617.78;5033415;28;20400;-66
2024/02/09 13:05:44;;;;;;;10.30;3.40;;;;;;;17.78;57.55;99619.50;5030516;28;20057;-65
2024/02/09 13:08:10;;;;;;;11.65;3.35;;;;;;;17.79;57.19;99618.63;5032571;28;20412;-64
2024/02/09 13:10:37;;;;;;;7.20;3.38;;;;;;;17.41;57.41;99551.91;5032979;28;20029;-64
2024/02/09 13:13:05;;;;;;;5.97;3.13;;;;;;;17.81;57.44;99623.84;5032915;28;20144;-66